Time;durP1;ratioP1;P1;durP2;ratioP2;P2;SDS_P1;SDS_P2;PMS_P1;PMS_P2;Temp;Humidity;BMP_temperature;BMP_pressure;BME280_temperature;BME280_humidity;BME280_pressure;Samples;Min_cycle;Max_cycle;Signal;HPM_P1;HPM_P2
2024/03/10 00:01:21;;;;;;;28.40;22.40;;;;;;;;;;4905421;28;20696;-86
2024/03/10 00:03:47;;;;;;;28.97;22.07;;;;;;;;;;4935823;29;20770;-88
2024/03/10 00:06:14;;;;;;;28.50;22.57;;;;;;;;;;4918211;29;20240;-87
2024/03/10 00:08:42;;;;;;;28.20;22.13;;;;;;;;;;4898527;29;20231;-86
2024/03/10 00:11:09;;;;;;;29.03;22.13;;;;;;;;;;4936050;29;20228;-86
2024/03/10 00:13:35;;;;;;;27.07;22.70;;;;;;;;;;4899460;29;20224;-86
2024/03/10 00:16:01;;;;;;;30.17;23.10;;;;;;;;;;4905167;29;20234;-86
2024/03/10 00:18:26;;;;;;;31.17;23.60;;;;;;;;;;4921318;28;20453;-87
2024/03/10 00:20:54;;;;;;;28.63;23.13;;;;;;;;;;4948218;28;20237;-87
2024/03/10 00:23:20;;;;;;;30.53;22.30;;;;;;;;;;4926667;29;20375;-86
2024/03/10 00:25:48;;;;;;;27.17;22.30;;;;;;;;;;4935493;29;20811;-88
2024/03/10 00:28:19;;;;;;;29.47;21.53;;;;;;;;;;4926987;29;20216;-87
2024/03/10 00:30:48;;;;;;;30.03;23.80;;;;;;;;;;4908082;29;20233;-87
2024/03/10 00:33:14;;;;;;;30.43;23.70;;;;;;;;;;4927970;28;20223;-89
2024/03/10 00:35:40;;;;;;;31.73;23.70;;;;;;;;;;4906164;29;20229;-88
2024/03/10 00:38:05;;;;;;;31.67;24.20;;;;;;;;;;4933084;28;20216;-88
2024/03/10 00:40:31;;;;;;;29.50;23.37;;;;;;;;;;4930820;29;20235;-86
2024/03/10 00:42:56;;;;;;;29.50;22.57;;;;;;;;;;4941277;29;20673;-87
2024/03/10 00:45:24;;;;;;;29.53;23.53;;;;;;;;;;4909917;28;20281;-88
2024/03/10 00:47:54;;;;;;;31.63;23.73;;;;;;;;;;4924986;29;20251;-88
2024/03/10 00:50:20;;;;;;;30.73;24.40;;;;;;;;;;4930448;28;20684;-88
2024/03/10 00:52:46;;;;;;;30.70;23.43;;;;;;;;;;4908797;29;20234;-88
2024/03/10 00:55:14;;;;;;;32.23;24.97;;;;;;;;;;4924577;28;20227;-88
2024/03/10 00:57:40;;;;;;;31.03;24.47;;;;;;;;;;4928301;29;20224;-87
2024/03/10 01:00:09;;;;;;;31.13;24.23;;;;;;;;;;4904063;29;20228;-87
2024/03/10 01:02:34;;;;;;;32.97;24.83;;;;;;;;;;4886559;29;20263;-87
2024/03/10 01:05:00;;;;;;;33.70;25.57;;;;;;;;;;4921746;29;20227;-87
2024/03/10 01:07:52;;;;;;;33.27;25.23;;;;;;;;;;4944249;28;20231;-87
2024/03/10 01:10:17;;;;;;;30.50;23.93;;;;;;;;;;4883522;28;20231;-86
2024/03/10 01:12:43;;;;;;;32.90;25.43;;;;;;;;;;4927994;29;20266;-87
2024/03/10 01:15:10;;;;;;;33.13;25.93;;;;;;;;;;4949542;28;20310;-87
2024/03/10 01:17:35;;;;;;;32.10;25.10;;;;;;;;;;4923932;28;20223;-88
2024/03/10 01:20:04;;;;;;;32.63;24.67;;;;;;;;;;4900477;29;20239;-87
2024/03/10 01:22:45;;;;;;;33.67;26.33;;;;;;;;;;4916699;29;20236;-88
2024/03/10 01:25:10;;;;;;;33.37;25.93;;;;;;;;;;4912186;29;20220;-88
2024/03/10 01:27:43;;;;;;;35.60;25.97;;;;;;;;;;4898332;29;20225;-87
2024/03/10 01:30:10;;;;;;;34.23;26.73;;;;;;;;;;4908203;28;20262;-87
2024/03/10 01:32:36;;;;;;;35.30;27.03;;;;;;;;;;4923415;28;20235;-88
2024/03/10 01:35:04;;;;;;;34.03;25.80;;;;;;;;;;4931018;28;20227;-87
2024/03/10 01:37:29;;;;;;;34.03;26.10;;;;;;;;;;4908970;29;20826;-88
2024/03/10 01:39:55;;;;;;;37.00;26.97;;;;;;;;;;4941226;28;20297;-88
2024/03/10 01:42:20;;;;;;;36.53;27.43;;;;;;;;;;4921534;28;20238;-88
2024/03/10 01:44:48;;;;;;;34.80;26.60;;;;;;;;;;4922045;29;20232;-87
2024/03/10 01:47:14;;;;;;;34.47;26.90;;;;;;;;;;4912067;28;20212;-87
2024/03/10 01:49:39;;;;;;;38.40;27.10;;;;;;;;;;4911042;29;20314;-88
2024/03/10 01:52:05;;;;;;;37.00;28.43;;;;;;;;;;4924716;28;20235;-88
2024/03/10 01:54:33;;;;;;;36.43;27.80;;;;;;;;;;4915000;29;20230;-88
2024/03/10 01:56:59;;;;;;;35.33;28.40;;;;;;;;;;4930582;29;20235;-88
2024/03/10 01:59:27;;;;;;;38.10;27.13;;;;;;;;;;4930285;28;20261;-87
2024/03/10 02:01:54;;;;;;;35.57;27.60;;;;;;;;;;4924753;29;20235;-88
2024/03/10 02:04:20;;;;;;;35.30;28.13;;;;;;;;;;4910393;28;20218;-87
2024/03/10 02:06:45;;;;;;;35.80;27.37;;;;;;;;;;4937442;29;20238;-88
2024/03/10 02:09:12;;;;;;;39.23;28.37;;;;;;;;;;4934578;29;20235;-88
2024/03/10 02:11:38;;;;;;;37.23;28.37;;;;;;;;;;4926423;28;20254;-87
2024/03/10 02:14:04;;;;;;;39.33;28.27;;;;;;;;;;4901935;29;20244;-87
2024/03/10 02:16:37;;;;;;;36.67;28.70;;;;;;;;;;4933818;28;20223;-87
2024/03/10 02:19:03;;;;;;;38.83;29.40;;;;;;;;;;4921296;29;20227;-88
2024/03/10 02:21:31;;;;;;;37.07;27.77;;;;;;;;;;4920635;29;20239;-87
2024/03/10 02:24:19;;;;;;;39.53;28.57;;;;;;;;;;4911913;28;20207;-86
2024/03/10 02:26:48;;;;;;;38.37;27.63;;;;;;;;;;4922787;28;20281;-87
2024/03/10 02:29:14;;;;;;;37.70;28.37;;;;;;;;;;4936774;28;20215;-87
2024/03/10 02:48:13;;;;;;;37.77;28.87;;;;;;;;;;4918469;28;20230;-86
2024/03/10 02:50:42;;;;;;;38.83;29.53;;;;;;;;;;4935620;28;20211;-86
2024/03/10 02:53:10;;;;;;;36.73;27.83;;;;;;;;;;4948682;28;20227;-87
2024/03/10 02:55:35;;;;;;;36.27;27.87;;;;;;;;;;4903025;29;20228;-86
2024/03/10 02:58:02;;;;;;;44.40;31.57;;;;;;;;;;4931038;29;20740;-87
2024/03/10 03:00:28;;;;;;;41.27;30.50;;;;;;;;;;4894002;29;20289;-88
2024/03/10 03:02:57;;;;;;;40.40;29.67;;;;;;;;;;4934290;28;20230;-87
2024/03/10 03:05:28;;;;;;;42.30;31.10;;;;;;;;;;4905076;29;20239;-87
2024/03/10 03:07:55;;;;;;;42.80;31.33;;;;;;;;;;4938300;28;20321;-87
2024/03/10 03:10:20;;;;;;;39.93;29.37;;;;;;;;;;4885555;28;20223;-88
2024/03/10 03:12:52;;;;;;;39.57;30.50;;;;;;;;;;4902778;29;20973;-87
2024/03/10 03:15:17;;;;;;;43.77;31.63;;;;;;;;;;4930533;28;20299;-88
2024/03/10 03:17:43;;;;;;;41.63;30.03;;;;;;;;;;4923959;29;20748;-87
2024/03/10 03:20:20;;;;;;;40.23;30.23;;;;;;;;;;4937913;28;20238;-89
2024/03/10 03:22:47;;;;;;;42.50;31.40;;;;;;;;;;4937919;28;20227;-87
2024/03/10 03:25:13;;;;;;;41.53;31.00;;;;;;;;;;4910436;29;20228;-88
2024/03/10 03:27:39;;;;;;;43.53;31.40;;;;;;;;;;4945620;28;20716;-86
2024/03/10 03:30:07;;;;;;;39.47;29.90;;;;;;;;;;4939639;28;20240;-87
2024/03/10 03:32:36;;;;;;;43.07;30.97;;;;;;;;;;4915528;29;20224;-86
2024/03/10 03:35:05;;;;;;;41.83;30.60;;;;;;;;;;4939323;28;20223;-87
2024/03/10 03:37:31;;;;;;;38.83;30.37;;;;;;;;;;4941899;28;20904;-86
2024/03/10 03:39:59;;;;;;;41.00;31.07;;;;;;;;;;4926591;29;20222;-88
2024/03/10 03:42:25;;;;;;;44.23;30.20;;;;;;;;;;4919783;29;20267;-87
2024/03/10 03:44:53;;;;;;;42.87;31.83;;;;;;;;;;4920488;29;20228;-87
2024/03/10 03:47:19;;;;;;;40.77;31.13;;;;;;;;;;4920436;29;20727;-87
2024/03/10 03:49:45;;;;;;;42.27;31.37;;;;;;;;;;4905791;29;20235;-87
2024/03/10 03:52:11;;;;;;;42.23;30.90;;;;;;;;;;4907554;28;20305;-87
2024/03/10 03:54:39;;;;;;;41.03;31.67;;;;;;;;;;4926097;28;20227;-88
2024/03/10 03:57:10;;;;;;;42.13;31.10;;;;;;;;;;4903447;28;20311;-87
2024/03/10 04:03:22;;;;;;;40.73;30.20;;;;;;;;;;4947124;28;20278;-86
2024/03/10 04:05:48;;;;;;;43.30;30.93;;;;;;;;;;4921202;29;20777;-87
2024/03/10 04:08:13;;;;;;;40.90;30.10;;;;;;;;;;4934281;28;20226;-87
2024/03/10 04:10:41;;;;;;;43.70;31.27;;;;;;;;;;4911794;29;20695;-86
2024/03/10 04:13:07;;;;;;;40.97;30.27;;;;;;;;;;4923937;28;20228;-86
2024/03/10 04:15:36;;;;;;;40.67;30.80;;;;;;;;;;4915847;28;20273;-88
2024/03/10 04:18:05;;;;;;;41.10;31.07;;;;;;;;;;4942666;29;20311;-87
2024/03/10 04:20:34;;;;;;;43.40;30.53;;;;;;;;;;4918245;29;20642;-87
2024/03/10 04:23:02;;;;;;;41.47;30.33;;;;;;;;;;4918773;29;20305;-88
2024/03/10 04:25:29;;;;;;;40.40;30.67;;;;;;;;;;4952654;28;20227;-87
2024/03/10 04:27:55;;;;;;;41.77;31.10;;;;;;;;;;4930720;29;20589;-87
2024/03/10 04:30:22;;;;;;;43.23;30.73;;;;;;;;;;4902446;29;20247;-88
2024/03/10 04:32:49;;;;;;;45.40;33.53;;;;;;;;;;4911837;29;20605;-87
2024/03/10 04:35:22;;;;;;;43.47;32.47;;;;;;;;;;4968292;28;20297;-88
2024/03/10 04:37:47;;;;;;;44.87;31.23;;;;;;;;;;4936944;28;20241;-87
2024/03/10 04:40:16;;;;;;;44.10;32.23;;;;;;;;;;4914180;29;20224;-87
2024/03/10 04:42:51;;;;;;;45.90;32.43;;;;;;;;;;4931034;28;20242;-87
2024/03/10 04:45:16;;;;;;;41.93;30.93;;;;;;;;;;4935394;28;20313;-85
2024/03/10 04:47:42;;;;;;;44.30;32.00;;;;;;;;;;4938471;29;20280;-86
2024/03/10 04:50:08;;;;;;;41.77;31.63;;;;;;;;;;4916445;29;20227;-88
2024/03/10 04:52:34;;;;;;;47.33;33.07;;;;;;;;;;4913710;29;20231;-86
2024/03/10 04:55:01;;;;;;;44.93;32.37;;;;;;;;;;4923803;29;20250;-87
2024/03/10 04:57:32;;;;;;;41.40;31.70;;;;;;;;;;4914237;29;20233;-86
2024/03/10 05:00:08;;;;;;;42.17;32.00;;;;;;;;;;4913594;29;20215;-86
2024/03/10 05:02:34;;;;;;;45.23;33.20;;;;;;;;;;4900526;29;20245;-87
2024/03/10 05:05:04;;;;;;;44.57;31.83;;;;;;;;;;4917654;29;20224;-87
2024/03/10 05:07:29;;;;;;;44.53;32.47;;;;;;;;;;4908875;29;20306;-87
2024/03/10 05:09:55;;;;;;;45.00;32.27;;;;;;;;;;4910423;29;20677;-87
2024/03/10 05:12:22;;;;;;;46.87;33.87;;;;;;;;;;4918128;29;20948;-87
2024/03/10 05:14:48;;;;;;;45.27;33.37;;;;;;;;;;4918050;29;20256;-88
2024/03/10 05:17:14;;;;;;;47.33;34.13;;;;;;;;;;4943878;28;20221;-86
2024/03/10 05:19:45;;;;;;;48.70;33.50;;;;;;;;;;4929905;29;20405;-86
2024/03/10 05:22:10;;;;;;;44.53;33.40;;;;;;;;;;4944165;28;20700;-86
2024/03/10 05:24:45;;;;;;;45.27;32.03;;;;;;;;;;4916233;29;20233;-85
2024/03/10 05:27:10;;;;;;;45.00;32.97;;;;;;;;;;4935147;28;20310;-87
2024/03/10 05:29:36;;;;;;;46.70;32.90;;;;;;;;;;4921085;29;20777;-87
2024/03/10 05:32:05;;;;;;;45.50;32.83;;;;;;;;;;4922576;29;20227;-87
2024/03/10 05:34:32;;;;;;;45.90;33.90;;;;;;;;;;4906594;29;20238;-87
2024/03/10 05:36:59;;;;;;;46.07;32.63;;;;;;;;;;4915578;29;20230;-87
2024/03/10 05:39:25;;;;;;;43.07;32.17;;;;;;;;;;4924407;28;20235;-87
2024/03/10 05:41:50;;;;;;;46.73;33.27;;;;;;;;;;4933856;28;20236;-88
2024/03/10 05:44:16;;;;;;;46.43;32.37;;;;;;;;;;4924769;29;20305;-87
2024/03/10 05:46:42;;;;;;;46.50;33.83;;;;;;;;;;4932458;29;20219;-87
2024/03/10 05:49:11;;;;;;;44.70;33.57;;;;;;;;;;4902494;28;20254;-88
2024/03/10 05:51:36;;;;;;;48.67;33.60;;;;;;;;;;4914786;29;20232;-88
2024/03/10 05:54:05;;;;;;;48.07;33.07;;;;;;;;;;4914335;29;20249;-87
2024/03/10 05:56:33;;;;;;;45.40;32.23;;;;;;;;;;4921811;29;20799;-88
2024/03/10 05:59:02;;;;;;;49.93;34.90;;;;;;;;;;4945547;28;20603;-88
2024/03/10 06:01:28;;;;;;;47.60;32.90;;;;;;;;;;4938130;28;20234;-88
2024/03/10 06:03:54;;;;;;;49.53;34.20;;;;;;;;;;4904622;29;20278;-88
2024/03/10 06:06:22;;;;;;;48.43;34.70;;;;;;;;;;4927447;28;20234;-88
2024/03/10 06:08:48;;;;;;;48.13;33.93;;;;;;;;;;4946386;28;20223;-88
2024/03/10 06:11:14;;;;;;;45.93;33.37;;;;;;;;;;4950051;28;20286;-87
2024/03/10 06:13:40;;;;;;;49.27;34.43;;;;;;;;;;4925985;29;20231;-88
2024/03/10 06:16:08;;;;;;;46.60;34.03;;;;;;;;;;4913539;28;20228;-87
2024/03/10 06:25:22;;;;;;;42.20;31.80;;;;;;;;;;4926548;29;20235;-88
2024/03/10 06:26:55;;;;;;;46.73;33.37;;;;;;;;;;4925700;29;20235;-87
2024/03/10 06:29:22;;;;;;;43.90;32.63;;;;;;;;;;4922454;28;20305;-86
2024/03/10 06:31:48;;;;;;;46.90;34.33;;;;;;;;;;4910609;29;20310;-86
2024/03/10 06:34:13;;;;;;;45.67;33.37;;;;;;;;;;4917776;28;20299;-86
2024/03/10 06:36:39;;;;;;;46.53;33.97;;;;;;;;;;4926491;29;20318;-87
2024/03/10 06:39:05;;;;;;;47.23;33.90;;;;;;;;;;4892956;28;20235;-87
2024/03/10 06:41:38;;;;;;;45.97;34.07;;;;;;;;;;4921569;29;20238;-86
2024/03/10 06:44:06;;;;;;;41.33;32.53;;;;;;;;;;4925385;28;20259;-86
2024/03/10 06:46:32;;;;;;;46.90;35.00;;;;;;;;;;4907431;29;20350;-86
2024/03/10 06:48:57;;;;;;;43.20;33.33;;;;;;;;;;4931102;29;20231;-87
2024/03/10 06:51:24;;;;;;;44.17;32.20;;;;;;;;;;4923687;28;20239;-88
2024/03/10 06:53:50;;;;;;;41.73;31.87;;;;;;;;;;4928622;28;20688;-87
2024/03/10 06:56:15;;;;;;;46.30;33.93;;;;;;;;;;4927074;28;20283;-88
2024/03/10 06:58:44;;;;;;;45.93;33.73;;;;;;;;;;4959850;28;20360;-86
2024/03/10 07:01:12;;;;;;;46.47;33.83;;;;;;;;;;4944094;28;20723;-86
2024/03/10 07:03:37;;;;;;;40.77;31.47;;;;;;;;;;4946200;28;20268;-86
2024/03/10 07:06:04;;;;;;;45.93;33.67;;;;;;;;;;4922516;28;20215;-87
2024/03/10 07:08:30;;;;;;;42.57;33.43;;;;;;;;;;4911517;29;20236;-86
2024/03/10 07:10:56;;;;;;;41.23;33.83;;;;;;;;;;4918671;29;21469;-88
2024/03/10 07:13:22;;;;;;;40.23;30.93;;;;;;;;;;4924161;28;20227;-87
2024/03/10 07:15:47;;;;;;;39.23;32.13;;;;;;;;;;4936882;28;20292;-87
2024/03/10 07:18:15;;;;;;;40.77;31.77;;;;;;;;;;4917156;29;20728;-87
2024/03/10 07:20:41;;;;;;;38.87;31.37;;;;;;;;;;4929632;29;20239;-86
2024/03/10 07:23:11;;;;;;;41.77;32.03;;;;;;;;;;4929923;29;20220;-87
2024/03/10 07:25:37;;;;;;;38.07;30.17;;;;;;;;;;4923795;29;20227;-87
2024/03/10 07:28:02;;;;;;;40.50;30.40;;;;;;;;;;4935497;28;20223;-88
2024/03/10 07:30:28;;;;;;;36.40;30.43;;;;;;;;;;4906450;29;20227;-87
2024/03/10 07:32:53;;;;;;;38.53;30.27;;;;;;;;;;4921527;29;20297;-88
2024/03/10 07:35:21;;;;;;;37.63;30.17;;;;;;;;;;4900087;28;20235;-86
2024/03/10 07:37:47;;;;;;;38.27;30.50;;;;;;;;;;4917393;29;20256;-86
2024/03/10 07:40:19;;;;;;;37.37;30.03;;;;;;;;;;4935163;28;20676;-86
2024/03/10 07:42:48;;;;;;;36.30;29.30;;;;;;;;;;4911786;29;20234;-87
2024/03/10 07:45:17;;;;;;;33.73;28.73;;;;;;;;;;4948556;28;20228;-87
2024/03/10 07:47:44;;;;;;;35.27;29.30;;;;;;;;;;4935655;28;20259;-87
2024/03/10 07:50:13;;;;;;;33.93;28.53;;;;;;;;;;4928193;28;20229;-87
2024/03/10 07:52:39;;;;;;;32.63;27.70;;;;;;;;;;4926561;29;20219;-86
2024/03/10 07:55:09;;;;;;;35.87;29.80;;;;;;;;;;4953541;28;20258;-86
2024/03/10 07:57:35;;;;;;;35.70;29.43;;;;;;;;;;4924600;29;20630;-88
2024/03/10 08:00:05;;;;;;;35.40;29.27;;;;;;;;;;4941004;28;20219;-88
2024/03/10 08:02:31;;;;;;;35.73;27.77;;;;;;;;;;4905800;29;20228;-87
2024/03/10 08:05:02;;;;;;;34.53;28.67;;;;;;;;;;4919064;29;20227;-87
2024/03/10 08:07:30;;;;;;;30.57;26.60;;;;;;;;;;4909805;29;20232;-86
2024/03/10 08:09:56;;;;;;;32.53;27.73;;;;;;;;;;4899425;29;20231;-87
2024/03/10 08:12:25;;;;;;;35.27;29.07;;;;;;;;;;4919352;28;20266;-88
2024/03/10 08:14:50;;;;;;;33.13;27.13;;;;;;;;;;4918195;29;20291;-86
2024/03/10 08:17:18;;;;;;;34.17;28.23;;;;;;;;;;4912741;28;20314;-86
2024/03/10 08:19:44;;;;;;;33.40;27.70;;;;;;;;;;4925832;29;20669;-86
2024/03/10 08:22:14;;;;;;;31.30;26.77;;;;;;;;;;4895555;29;20220;-86
2024/03/10 08:24:40;;;;;;;31.80;26.60;;;;;;;;;;4922706;29;20572;-87
2024/03/10 08:27:08;;;;;;;30.93;26.20;;;;;;;;;;4915060;29;20227;-86
2024/03/10 08:29:33;;;;;;;30.33;26.63;;;;;;;;;;4894462;29;20216;-80
2024/03/10 08:32:04;;;;;;;30.70;26.53;;;;;;;;;;4923848;29;20262;-79
2024/03/10 08:34:30;;;;;;;27.37;24.17;;;;;;;;;;4920339;29;20582;-81
2024/03/10 08:36:55;;;;;;;29.90;26.50;;;;;;;;;;4911392;29;20224;-79
2024/03/10 08:39:21;;;;;;;29.27;26.03;;;;;;;;;;4914703;29;20223;-78
2024/03/10 08:41:50;;;;;;;29.80;26.50;;;;;;;;;;4908992;29;20235;-80
2024/03/10 08:44:15;;;;;;;27.40;24.33;;;;;;;;;;4908829;28;20452;-80
2024/03/10 08:46:41;;;;;;;28.07;24.40;;;;;;;;;;4953101;28;20829;-79
2024/03/10 08:49:09;;;;;;;28.13;24.33;;;;;;;;;;4949435;28;20225;-78
2024/03/10 08:51:37;;;;;;;28.40;24.80;;;;;;;;;;4927627;28;20234;-78
2024/03/10 08:54:09;;;;;;;27.30;24.23;;;;;;;;;;4927277;28;20817;-78
2024/03/10 08:56:40;;;;;;;27.80;23.97;;;;;;;;;;4948436;28;20694;-81
2024/03/10 08:59:10;;;;;;;29.03;24.83;;;;;;;;;;4928505;29;20277;-80
2024/03/10 09:01:36;;;;;;;30.73;24.67;;;;;;;;;;4939462;28;20235;-81
2024/03/10 09:04:06;;;;;;;29.33;24.37;;;;;;;;;;4927561;29;20231;-80
2024/03/10 09:06:35;;;;;;;28.73;23.90;;;;;;;;;;4946242;28;20277;-80
2024/03/10 09:09:04;;;;;;;26.57;23.13;;;;;;;;;;4940146;28;20268;-81
2024/03/10 09:11:30;;;;;;;25.30;22.60;;;;;;;;;;4942666;28;20226;-80
2024/03/10 09:13:58;;;;;;;26.03;22.60;;;;;;;;;;4930736;29;20314;-80
2024/03/10 09:16:25;;;;;;;25.80;22.53;;;;;;;;;;4910307;28;20237;-81
2024/03/10 09:18:51;;;;;;;26.30;23.50;;;;;;;;;;4912758;28;20291;-82
2024/03/10 09:21:17;;;;;;;26.03;23.33;;;;;;;;;;4925031;28;20316;-80
2024/03/10 09:23:45;;;;;;;26.47;23.53;;;;;;;;;;4925946;29;20254;-81
2024/03/10 09:26:13;;;;;;;26.47;23.67;;;;;;;;;;4915806;28;20251;-81
2024/03/10 09:28:44;;;;;;;25.83;22.97;;;;;;;;;;4927958;29;20253;-81
2024/03/10 09:31:14;;;;;;;25.93;22.30;;;;;;;;;;4941390;28;20235;-79
2024/03/10 09:33:44;;;;;;;24.73;22.03;;;;;;;;;;4945414;28;21011;-80
2024/03/10 09:36:10;;;;;;;24.77;22.10;;;;;;;;;;4915737;28;20230;-81
2024/03/10 09:38:36;;;;;;;24.40;21.57;;;;;;;;;;4945987;28;20762;-79
2024/03/10 09:41:05;;;;;;;24.07;21.47;;;;;;;;;;4953211;28;20231;-81
2024/03/10 09:43:33;;;;;;;24.07;21.53;;;;;;;;;;4906310;29;20231;-81
2024/03/10 09:46:01;;;;;;;24.87;21.40;;;;;;;;;;4925755;28;20234;-79
2024/03/10 09:48:26;;;;;;;23.00;20.57;;;;;;;;;;4941377;28;20223;-80
2024/03/10 09:50:52;;;;;;;22.53;20.23;;;;;;;;;;4913516;29;20240;-79
2024/03/10 09:53:18;;;;;;;23.57;21.03;;;;;;;;;;4952713;28;20224;-80
2024/03/10 09:55:47;;;;;;;24.00;21.37;;;;;;;;;;4920325;28;20231;-80
2024/03/10 09:58:17;;;;;;;24.17;20.10;;;;;;;;;;4926944;28;20219;-80
2024/03/10 10:00:45;;;;;;;23.10;20.53;;;;;;;;;;4943069;28;20243;-79
2024/03/10 10:03:14;;;;;;;23.00;20.50;;;;;;;;;;4911193;29;20241;-78
2024/03/10 10:05:44;;;;;;;23.20;20.70;;;;;;;;;;4910519;29;20235;-79
2024/03/10 10:08:12;;;;;;;23.03;20.63;;;;;;;;;;4923048;28;20257;-79
2024/03/10 10:10:52;;;;;;;23.37;20.67;;;;;;;;;;4908513;29;21038;-81
2024/03/10 10:13:24;;;;;;;23.10;20.60;;;;;;;;;;4929512;28;20822;-80
2024/03/10 10:15:52;;;;;;;23.20;20.33;;;;;;;;;;4931008;29;20242;-81
2024/03/10 10:18:21;;;;;;;23.13;20.63;;;;;;;;;;4931782;28;20219;-84
2024/03/10 10:20:47;;;;;;;23.27;20.83;;;;;;;;;;4949375;28;20753;-87
2024/03/10 10:23:14;;;;;;;24.30;20.60;;;;;;;;;;4949599;28;20246;-86
2024/03/10 10:25:46;;;;;;;23.40;21.00;;;;;;;;;;4915615;29;20255;-87
2024/03/10 10:28:13;;;;;;;23.77;21.27;;;;;;;;;;4931475;29;20269;-85
2024/03/10 10:30:40;;;;;;;24.17;21.57;;;;;;;;;;4927490;28;20599;-85
2024/03/10 10:33:08;;;;;;;22.83;20.40;;;;;;;;;;4921123;28;20227;-84
2024/03/10 10:35:42;;;;;;;23.53;21.03;;;;;;;;;;4934080;29;20319;-83
2024/03/10 10:38:18;;;;;;;23.10;20.50;;;;;;;;;;4922829;28;20238;-81
2024/03/10 10:40:51;;;;;;;24.63;21.00;;;;;;;;;;4936541;29;20546;-84
2024/03/10 10:43:22;;;;;;;23.70;20.93;;;;;;;;;;4940367;28;20234;-84
2024/03/10 10:45:53;;;;;;;23.13;20.07;;;;;;;;;;4920710;29;20224;-84
2024/03/10 10:48:23;;;;;;;24.00;20.67;;;;;;;;;;4947910;28;20231;-86
2024/03/10 10:50:51;;;;;;;22.80;20.40;;;;;;;;;;4927775;29;20251;-85
2024/03/10 10:53:19;;;;;;;22.70;20.23;;;;;;;;;;4901053;28;20274;-85
2024/03/10 10:55:47;;;;;;;22.50;20.10;;;;;;;;;;4957163;28;20224;-84
2024/03/10 10:58:15;;;;;;;22.67;20.47;;;;;;;;;;4928328;28;20571;-84
2024/03/10 11:00:49;;;;;;;22.57;20.23;;;;;;;;;;4918682;29;20274;-86
2024/03/10 11:03:24;;;;;;;23.43;20.63;;;;;;;;;;4905110;28;20224;-86
2024/03/10 11:06:02;;;;;;;21.73;19.53;;;;;;;;;;4924914;28;20243;-86
2024/03/10 11:08:39;;;;;;;23.13;19.77;;;;;;;;;;4930475;28;20234;-87
2024/03/10 11:11:05;;;;;;;21.67;19.37;;;;;;;;;;4924687;28;20238;-83
2024/03/10 11:13:33;;;;;;;22.10;19.70;;;;;;;;;;4918177;29;20314;-86
2024/03/10 11:16:14;;;;;;;22.47;20.10;;;;;;;;;;4925759;29;20223;-87
2024/03/10 11:18:39;;;;;;;23.40;20.90;;;;;;;;;;4925359;29;20662;-86
2024/03/10 11:21:17;;;;;;;25.07;21.30;;;;;;;;;;4934930;28;20266;-87
2024/03/10 11:23:45;;;;;;;22.83;20.33;;;;;;;;;;4920943;29;20243;-87
2024/03/10 11:26:16;;;;;;;23.57;20.83;;;;;;;;;;4923602;28;20438;-84
2024/03/10 11:28:51;;;;;;;25.60;20.87;;;;;;;;;;4913210;29;20936;-85
2024/03/10 11:31:20;;;;;;;24.70;20.87;;;;;;;;;;4936090;28;20232;-85
2024/03/10 11:34:03;;;;;;;22.47;20.10;;;;;;;;;;4930714;28;20219;-84
2024/03/10 11:36:39;;;;;;;21.37;19.17;;;;;;;;;;4938061;29;20298;-85
2024/03/10 11:39:07;;;;;;;21.87;19.57;;;;;;;;;;4929931;29;20704;-84
2024/03/10 11:41:37;;;;;;;22.20;19.70;;;;;;;;;;4930482;29;20317;-87
2024/03/10 11:44:10;;;;;;;22.33;20.03;;;;;;;;;;4886646;28;20235;-82
2024/03/10 11:46:37;;;;;;;22.57;19.50;;;;;;;;;;4906088;29;20220;-85
2024/03/10 11:49:08;;;;;;;22.13;19.83;;;;;;;;;;4933983;29;20327;-85
2024/03/10 11:51:38;;;;;;;21.47;18.30;;;;;;;;;;4925309;28;20235;-87
2024/03/10 11:54:04;;;;;;;21.87;19.60;;;;;;;;;;4930790;28;20714;-85
2024/03/10 11:56:32;;;;;;;22.60;20.37;;;;;;;;;;4924427;29;20285;-86
2024/03/10 11:59:00;;;;;;;21.77;19.47;;;;;;;;;;4902532;29;20238;-81
2024/03/10 12:01:31;;;;;;;22.53;20.10;;;;;;;;;;4913140;28;20318;-81
2024/03/10 12:04:05;;;;;;;22.80;19.87;;;;;;;;;;4938413;29;20243;-79
2024/03/10 12:06:34;;;;;;;22.53;19.80;;;;;;;;;;4902753;29;20615;-80
2024/03/10 12:09:09;;;;;;;21.97;19.57;;;;;;;;;;4922866;29;20220;-80
2024/03/10 12:11:35;;;;;;;23.03;20.37;;;;;;;;;;4944971;28;20688;-81
2024/03/10 12:14:11;;;;;;;21.23;19.03;;;;;;;;;;4915829;29;20307;-80
2024/03/10 12:16:38;;;;;;;22.10;19.40;;;;;;;;;;4943250;29;20250;-80
2024/03/10 12:19:06;;;;;;;21.23;19.07;;;;;;;;;;4928647;28;20255;-80
2024/03/10 12:21:32;;;;;;;21.50;19.23;;;;;;;;;;4922716;29;20238;-80
2024/03/10 12:24:00;;;;;;;22.37;19.97;;;;;;;;;;4918029;29;20771;-78
2024/03/10 12:26:26;;;;;;;20.60;18.40;;;;;;;;;;4946340;28;20224;-78
2024/03/10 12:28:54;;;;;;;20.60;18.43;;;;;;;;;;4916964;29;20234;-80
2024/03/10 12:31:20;;;;;;;20.67;18.50;;;;;;;;;;4953338;28;20225;-79
2024/03/10 12:33:49;;;;;;;21.63;18.93;;;;;;;;;;4939032;28;20222;-79
2024/03/10 12:36:17;;;;;;;21.07;18.87;;;;;;;;;;4938867;28;20945;-79
2024/03/10 12:38:46;;;;;;;20.90;18.70;;;;;;;;;;4930741;28;20228;-79
2024/03/10 12:41:13;;;;;;;21.37;18.50;;;;;;;;;;4945662;28;20671;-80
2024/03/10 12:43:41;;;;;;;21.27;19.07;;;;;;;;;;4954420;28;20306;-80
2024/03/10 12:46:11;;;;;;;20.93;18.73;;;;;;;;;;4929793;28;20684;-80
2024/03/10 12:48:39;;;;;;;20.57;18.27;;;;;;;;;;4933406;28;20224;-79
2024/03/10 12:51:06;;;;;;;21.17;18.73;;;;;;;;;;4939293;28;20597;-77
2024/03/10 12:53:34;;;;;;;21.90;19.57;;;;;;;;;;4926237;28;20700;-80
2024/03/10 12:55:59;;;;;;;22.30;19.87;;;;;;;;;;4918433;29;20228;-80
2024/03/10 12:58:27;;;;;;;22.70;20.30;;;;;;;;;;4911310;28;20702;-80
2024/03/10 13:00:55;;;;;;;21.43;19.13;;;;;;;;;;4950016;28;20238;-80
2024/03/10 13:03:21;;;;;;;22.20;19.90;;;;;;;;;;4932201;28;20219;-79
2024/03/10 13:05:47;;;;;;;22.20;19.73;;;;;;;;;;4934603;29;20271;-79
2024/03/10 13:08:12;;;;;;;21.63;19.33;;;;;;;;;;4930428;28;20231;-80
2024/03/10 13:10:42;;;;;;;22.13;19.77;;;;;;;;;;4939802;28;20600;-81
2024/03/10 13:13:08;;;;;;;21.93;19.60;;;;;;;;;;4943188;28;20238;-79
2024/03/10 13:15:36;;;;;;;22.47;20.17;;;;;;;;;;4926954;29;20223;-79
2024/03/10 13:18:15;;;;;;;21.77;19.37;;;;;;;;;;4928691;28;20228;-79
2024/03/10 13:20:44;;;;;;;21.77;19.47;;;;;;;;;;4944118;28;20234;-78
2024/03/10 13:23:12;;;;;;;22.20;19.90;;;;;;;;;;4930456;28;20285;-79
2024/03/10 13:25:37;;;;;;;21.93;19.63;;;;;;;;;;4934743;28;20283;-79
2024/03/10 13:28:03;;;;;;;21.07;18.87;;;;;;;;;;4929934;28;20231;-79
2024/03/10 13:30:33;;;;;;;22.27;19.93;;;;;;;;;;4949819;28;20732;-80
2024/03/10 13:33:01;;;;;;;23.40;20.90;;;;;;;;;;4924444;29;20228;-80
2024/03/10 13:35:27;;;;;;;21.13;18.97;;;;;;;;;;4945687;28;20298;-80
2024/03/10 13:37:55;;;;;;;22.63;20.17;;;;;;;;;;4897108;29;20235;-80
2024/03/10 13:40:20;;;;;;;22.13;19.83;;;;;;;;;;4913432;29;20331;-80
2024/03/10 13:42:49;;;;;;;21.87;19.47;;;;;;;;;;4923365;29;20850;-80
2024/03/10 13:45:15;;;;;;;22.67;19.50;;;;;;;;;;4933324;28;20234;-80
2024/03/10 13:47:46;;;;;;;21.83;19.00;;;;;;;;;;4909185;29;20250;-77
2024/03/10 13:50:14;;;;;;;21.33;18.83;;;;;;;;;;4906404;29;20236;-79
2024/03/10 13:52:39;;;;;;;21.00;18.67;;;;;;;;;;4929497;28;20227;-80
2024/03/10 13:55:11;;;;;;;20.73;18.60;;;;;;;;;;4931447;28;20227;-79
2024/03/10 13:57:43;;;;;;;21.57;19.37;;;;;;;;;;4909182;29;20231;-79
2024/03/10 14:00:13;;;;;;;21.97;19.50;;;;;;;;;;4905499;28;20335;-81
2024/03/10 14:02:44;;;;;;;20.47;18.30;;;;;;;;;;4904755;29;20391;-80
2024/03/10 14:05:11;;;;;;;21.90;19.30;;;;;;;;;;4945551;28;20241;-79
2024/03/10 14:07:37;;;;;;;21.23;18.93;;;;;;;;;;4909586;29;20764;-81
2024/03/10 14:10:04;;;;;;;22.40;19.77;;;;;;;;;;4939633;28;20275;-78
2024/03/10 14:12:35;;;;;;;21.60;19.40;;;;;;;;;;4913299;29;20234;-80
2024/03/10 14:15:01;;;;;;;24.37;19.73;;;;;;;;;;4925095;28;20251;-79
2024/03/10 14:17:27;;;;;;;21.67;19.27;;;;;;;;;;4918816;28;20251;-79
2024/03/10 14:19:59;;;;;;;21.77;19.40;;;;;;;;;;4908074;29;20235;-79
2024/03/10 14:22:25;;;;;;;22.00;19.57;;;;;;;;;;4925080;28;20268;-80
2024/03/10 14:24:50;;;;;;;21.93;19.67;;;;;;;;;;4936084;28;20263;-79
2024/03/10 14:27:18;;;;;;;21.17;18.97;;;;;;;;;;4905872;28;20224;-79
2024/03/10 14:29:44;;;;;;;22.30;19.77;;;;;;;;;;4943253;28;20250;-79
2024/03/10 14:32:09;;;;;;;21.70;19.40;;;;;;;;;;4934825;28;20230;-80
2024/03/10 14:34:35;;;;;;;21.43;19.13;;;;;;;;;;4933478;28;20649;-80
2024/03/10 14:37:03;;;;;;;20.23;18.03;;;;;;;;;;4926973;28;20240;-79
2024/03/10 14:39:29;;;;;;;21.90;19.60;;;;;;;;;;4919438;28;20621;-79
2024/03/10 14:41:56;;;;;;;21.13;18.93;;;;;;;;;;4939594;28;20227;-80
2024/03/10 14:44:22;;;;;;;21.73;19.43;;;;;;;;;;4939683;28;20230;-79
2024/03/10 14:46:50;;;;;;;21.67;18.93;;;;;;;;;;4936494;28;20231;-80